createdAt,value
2018-06-18T00:01:53.803Z,97.40
2018-06-18T00:04:21.999Z,97.60
2018-06-18T00:06:50.142Z,97.70
2018-06-18T00:09:18.275Z,97.90
2018-06-18T00:11:46.431Z,97.90
2018-06-18T00:14:14.759Z,98.00
2018-06-18T00:16:42.886Z,98.30
2018-06-18T00:19:11.621Z,98.00
2018-06-18T00:21:41.140Z,98.10
2018-06-18T00:24:09.716Z,98.00
2018-06-18T00:26:37.873Z,97.90
2018-06-18T00:29:05.985Z,98.00
2018-06-18T00:31:34.092Z,98.00
2018-06-18T00:34:02.253Z,98.10
2018-06-18T00:36:30.345Z,98.10
2018-06-18T00:38:58.456Z,98.20
2018-06-18T00:41:26.552Z,98.30
2018-06-18T00:43:54.746Z,98.40
2018-06-18T00:46:22.856Z,98.50
2018-06-18T00:48:50.974Z,98.60
2018-06-18T00:51:19.085Z,98.80
2018-06-18T00:53:47.207Z,98.80
2018-06-18T00:56:16.458Z,99.30
2018-06-18T00:58:44.740Z,99.20
2018-06-18T01:01:13.322Z,99.10
2018-06-18T01:03:41.448Z,99.00
2018-06-18T01:06:09.579Z,99.10
2018-06-18T01:08:37.697Z,99.30
2018-06-18T01:11:05.821Z,99.00
2018-06-18T01:13:33.942Z,98.90
2018-06-18T01:16:02.041Z,99.00
2018-06-18T01:18:30.139Z,98.80
2018-06-18T01:20:58.252Z,99.00
2018-06-18T01:23:47.760Z,98.90
2018-06-18T01:26:15.949Z,98.90
2018-06-18T01:28:44.078Z,98.80
2018-06-18T01:31:12.187Z,98.70
2018-06-18T01:33:40.301Z,98.80
2018-06-18T01:36:08.420Z,98.80
2018-06-18T01:38:36.516Z,98.50
2018-06-18T01:41:04.683Z,98.20
2018-06-18T01:43:32.804Z,98.20
2018-06-18T01:46:00.925Z,98.40
2018-06-18T01:48:29.016Z,98.40
2018-06-18T01:50:57.136Z,98.50
2018-06-18T01:53:25.249Z,98.50
2018-06-18T01:55:53.356Z,98.60
2018-06-18T02:00:49.417Z,98.80
2018-06-18T02:03:17.520Z,98.80
2018-06-18T02:05:45.626Z,98.70
2018-06-18T02:08:13.728Z,98.80
2018-06-18T02:10:42.032Z,98.70
2018-06-18T02:13:10.143Z,98.80
2018-06-18T02:15:38.272Z,98.70
2018-06-18T02:18:06.374Z,98.80
2018-06-18T02:20:34.488Z,98.80
2018-06-18T02:23:02.601Z,98.90
2018-06-18T02:25:30.717Z,99.00
2018-06-18T02:28:04.480Z,99.10
2018-06-18T02:30:38.214Z,99.20
2018-06-18T02:33:11.712Z,99.50
2018-06-18T02:35:45.289Z,99.70
2018-06-18T02:38:18.848Z,99.80
2018-06-18T02:40:47.747Z,99.90
2018-06-18T02:43:17.440Z,99.90
2018-06-18T02:45:45.789Z,99.90
2018-06-18T02:48:13.876Z,99.90
2018-06-18T02:50:42.601Z,99.90
2018-06-18T02:53:10.709Z,99.90
2018-06-18T02:55:40.764Z,99.90
2018-06-18T02:58:08.900Z,99.90
2018-06-18T03:00:36.990Z,99.90
2018-06-18T03:03:05.105Z,99.90
2018-06-18T03:05:33.208Z,99.90
2018-06-18T03:08:01.302Z,99.90
2018-06-18T03:10:29.508Z,99.90
2018-06-18T03:12:57.638Z,99.90
2018-06-18T03:15:25.731Z,99.90
2018-06-18T03:17:53.844Z,99.90
2018-06-18T03:20:27.496Z,99.90
2018-06-18T03:23:01.018Z,99.90
2018-06-18T03:25:34.695Z,99.90
2018-06-18T03:28:08.300Z,99.90
2018-06-18T03:30:36.409Z,99.90
2018-06-18T03:33:04.664Z,99.90
2018-06-18T03:35:32.791Z,99.90
2018-06-18T03:38:01.721Z,99.90
2018-06-18T03:40:29.832Z,99.90
2018-06-18T03:42:57.932Z,99.90
2018-06-18T03:45:29.292Z,99.90
2018-06-18T03:47:59.660Z,99.90
2018-06-18T03:50:27.796Z,99.90
2018-06-18T03:52:55.912Z,99.90
2018-06-18T03:55:32.935Z,99.90
2018-06-18T03:58:05.291Z,99.90
2018-06-18T04:00:40.745Z,99.90
2018-06-18T04:05:47.997Z,99.90
2018-06-18T04:08:16.108Z,99.90
2018-06-18T04:10:49.785Z,99.90
2018-06-18T04:13:17.897Z,99.90
2018-06-18T04:15:46.068Z,99.90
2018-06-18T04:18:14.168Z,99.90
2018-06-18T04:20:49.894Z,99.90
2018-06-18T04:23:18.356Z,99.90
2018-06-18T04:25:46.521Z,99.90
2018-06-18T04:28:14.643Z,99.90
2018-06-18T04:30:44.403Z,99.90
2018-06-18T04:33:13.805Z,99.90
2018-06-18T04:35:41.905Z,99.90
2018-06-18T04:38:10.033Z,99.90
2018-06-18T04:40:38.149Z,99.90
2018-06-18T04:43:11.866Z,99.90
2018-06-18T04:45:43.433Z,99.90
2018-06-18T04:48:16.980Z,99.90
2018-06-18T04:50:50.456Z,99.90
2018-06-18T04:53:18.556Z,99.90
2018-06-18T04:55:46.680Z,99.90
2018-06-18T04:58:14.785Z,99.90
2018-06-18T05:01:03.268Z,99.90
2018-06-18T05:03:31.376Z,99.90
2018-06-18T05:05:59.756Z,99.90
2018-06-18T05:08:36.084Z,99.90
2018-06-18T05:11:04.182Z,99.90
2018-06-18T05:13:32.300Z,99.90
2018-06-18T05:16:00.431Z,99.60
2018-06-18T05:18:28.593Z,99.00
2018-06-18T05:20:56.695Z,98.90
2018-06-18T05:23:24.796Z,98.60
2018-06-18T05:25:55.567Z,99.10
2018-06-18T05:28:23.760Z,98.90
2018-06-18T05:30:51.879Z,99.00
2018-06-18T05:33:20.070Z,98.90
2018-06-18T05:35:48.123Z,99.00
2018-06-18T05:38:33.892Z,99.00
2018-06-18T05:41:02.070Z,99.00
2018-06-18T05:43:30.768Z,98.40
2018-06-18T05:45:59.073Z,98.80
2018-06-18T05:48:27.179Z,98.70
2018-06-18T05:50:55.392Z,98.10
2018-06-18T05:53:23.512Z,98.40
2018-06-18T05:55:51.612Z,98.40
2018-06-18T05:58:19.716Z,98.30
2018-06-18T06:00:48.079Z,98.00
2018-06-18T06:03:16.169Z,98.00
2018-06-18T06:05:44.336Z,97.60
2018-06-18T06:08:12.450Z,97.50
2018-06-18T06:10:40.544Z,97.20
2018-06-18T06:13:09.668Z,97.80
2018-06-18T06:15:37.766Z,98.10
2018-06-18T06:18:06.623Z,98.20
2018-06-18T06:20:35.679Z,98.00
2018-06-18T06:23:03.767Z,97.70
2018-06-18T06:25:31.952Z,97.60
2018-06-18T06:28:00.121Z,97.60
2018-06-18T06:30:28.220Z,98.00
2018-06-18T06:32:56.354Z,97.80
2018-06-18T06:35:30.700Z,97.20
2018-06-18T06:37:58.792Z,97.80
2018-06-18T06:40:26.991Z,97.30
2018-06-18T06:42:55.133Z,96.90
2018-06-18T06:45:23.244Z,97.40
2018-06-18T06:47:51.382Z,97.50
2018-06-18T06:50:19.488Z,97.70
2018-06-18T06:52:47.585Z,97.70
2018-06-18T06:55:15.776Z,97.00
2018-06-18T06:57:43.862Z,97.10
2018-06-18T07:00:12.020Z,97.50
2018-06-18T07:02:40.113Z,97.70
2018-06-18T07:05:08.259Z,97.30
2018-06-18T07:07:36.377Z,97.50
2018-06-18T07:10:04.509Z,97.20
2018-06-18T07:12:32.629Z,97.10
2018-06-18T07:15:00.738Z,96.80
2018-06-18T07:17:28.881Z,97.00
2018-06-18T07:19:56.981Z,96.80
2018-06-18T07:22:25.069Z,96.80
2018-06-18T07:24:53.204Z,97.10
2018-06-18T07:27:21.313Z,97.00
2018-06-18T07:29:49.423Z,96.70
2018-06-18T07:32:17.534Z,97.30
2018-06-18T07:34:45.662Z,97.00
2018-06-18T07:37:13.767Z,96.40
2018-06-18T07:42:10.003Z,96.40
2018-06-18T07:44:38.191Z,96.30
2018-06-18T07:47:06.292Z,96.60
2018-06-18T07:49:34.422Z,96.60
2018-06-18T07:52:02.560Z,96.90
2018-06-18T07:54:30.662Z,97.30
2018-06-18T07:56:58.967Z,97.30
2018-06-18T07:59:27.243Z,96.60
2018-06-18T08:01:55.364Z,97.20
2018-06-18T08:04:23.903Z,96.60
2018-06-18T08:06:52.048Z,95.80
2018-06-18T08:09:20.152Z,95.40
2018-06-18T08:11:48.265Z,95.40
2018-06-18T08:14:16.363Z,95.70
2018-06-18T08:16:44.475Z,95.40
2018-06-18T08:19:12.595Z,95.30
2018-06-18T08:21:40.708Z,95.50
2018-06-18T08:24:08.893Z,95.40
2018-06-18T08:26:36.999Z,95.60
2018-06-18T08:29:05.102Z,95.40
2018-06-18T08:31:33.255Z,95.50
2018-06-18T08:34:01.425Z,95.00
2018-06-18T08:36:29.668Z,95.20
2018-06-18T08:38:57.770Z,94.50
2018-06-18T08:41:25.877Z,94.90
2018-06-18T08:43:54.141Z,94.30
2018-06-18T08:46:22.245Z,94.80
2018-06-18T08:48:55.819Z,94.30
2018-06-18T08:51:29.314Z,94.50
2018-06-18T08:54:02.907Z,95.00
2018-06-18T08:56:36.524Z,94.60
2018-06-18T08:59:10.017Z,95.00
2018-06-18T09:01:42.454Z,95.10
2018-06-18T09:06:45.045Z,94.80
2018-06-18T09:09:13.151Z,94.90
2018-06-18T09:11:41.252Z,94.60
2018-06-18T09:14:09.397Z,95.00
2018-06-18T09:16:37.528Z,95.00
2018-06-18T09:19:05.655Z,95.10
2018-06-18T09:21:33.891Z,95.10
2018-06-18T09:24:02.067Z,95.10
2018-06-18T09:26:30.168Z,95.40
2018-06-18T09:28:58.272Z,95.40
2018-06-18T09:31:26.390Z,95.60
2018-06-18T09:33:54.496Z,95.70
2018-06-18T09:36:22.707Z,96.20
2018-06-18T09:38:50.817Z,96.10
2018-06-18T09:41:18.920Z,95.20
2018-06-18T09:43:47.019Z,95.80
2018-06-18T09:46:15.131Z,95.80
2018-06-18T09:48:48.788Z,96.10
2018-06-18T09:51:22.500Z,96.10
2018-06-18T09:53:56.195Z,95.70
2018-06-18T09:56:29.816Z,95.60
2018-06-18T10:00:06.367Z,95.50
2018-06-18T10:02:34.465Z,95.50
2018-06-18T10:05:02.567Z,95.30
2018-06-18T10:07:30.664Z,95.60
2018-06-18T10:09:58.804Z,95.40
2018-06-18T10:12:26.916Z,95.70
2018-06-18T10:17:23.011Z,96.20
2018-06-18T10:19:51.843Z,96.10
2018-06-18T10:22:19.945Z,96.50
2018-06-18T10:24:48.238Z,96.70
2018-06-18T10:27:16.356Z,96.80
2018-06-18T10:29:44.650Z,96.50
2018-06-18T10:32:18.171Z,96.50
2018-06-18T10:34:51.699Z,96.50
2018-06-18T10:37:25.278Z,96.20
2018-06-18T10:39:59.156Z,96.40
2018-06-18T10:42:32.849Z,96.70
2018-06-18T10:45:00.957Z,96.20
2018-06-18T10:47:29.070Z,96.90
2018-06-18T10:49:57.252Z,97.30
2018-06-18T10:52:25.388Z,97.30
2018-06-18T10:54:53.501Z,97.30
2018-06-18T10:57:21.673Z,97.00
2018-06-18T10:59:49.773Z,97.10
2018-06-18T11:02:17.888Z,97.00
2018-06-18T11:04:51.595Z,97.10
2018-06-18T11:07:19.724Z,97.30
2018-06-18T11:09:47.839Z,96.60
2018-06-18T11:12:15.989Z,96.80
2018-06-18T11:14:44.121Z,96.30
2018-06-18T11:17:18.013Z,96.90
2018-06-18T11:19:51.172Z,95.80
2018-06-18T11:22:19.342Z,95.90
2018-06-18T11:25:56.499Z,95.30
2018-06-18T11:28:24.778Z,96.10
2018-06-18T11:30:52.831Z,96.30
2018-06-18T11:33:20.936Z,96.10
2018-06-18T11:35:49.083Z,96.20
2018-06-18T11:38:17.195Z,96.20
2018-06-18T11:40:45.389Z,96.00
2018-06-18T11:43:13.444Z,96.70
2018-06-18T11:45:41.720Z,96.10
2018-06-18T11:48:14.787Z,96.10
2018-06-18T11:50:42.862Z,96.40
2018-06-18T11:53:11.160Z,96.60
2018-06-18T11:55:39.280Z,96.10
2018-06-18T11:58:07.383Z,96.00
2018-06-18T12:00:40.909Z,96.00
2018-06-18T12:03:14.567Z,95.00
2018-06-18T12:05:48.122Z,95.50
2018-06-18T12:08:21.772Z,95.70
2018-06-18T12:10:50.817Z,94.80
2018-06-18T12:13:18.924Z,95.20
2018-06-18T12:15:47.164Z,95.60
2018-06-18T12:18:15.382Z,94.80
2018-06-18T12:20:43.483Z,95.40
2018-06-18T12:23:11.596Z,95.10
2018-06-18T12:25:39.703Z,93.90
2018-06-18T12:28:07.853Z,94.40
2018-06-18T12:30:35.980Z,94.50
2018-06-18T12:33:04.080Z,94.80
2018-06-18T12:35:32.185Z,94.50
2018-06-18T12:38:00.300Z,94.80
2018-06-18T12:40:28.815Z,94.50
2018-06-18T12:42:56.917Z,94.20
2018-06-18T12:45:30.678Z,94.70
2018-06-18T12:48:04.086Z,94.30
2018-06-18T12:50:37.630Z,94.40
2018-06-18T12:53:11.346Z,94.10
2018-06-18T12:55:44.874Z,94.20
2018-06-18T12:58:12.970Z,94.50
2018-06-18T13:00:41.064Z,94.10
2018-06-18T13:03:12.099Z,94.20
2018-06-18T13:05:40.255Z,94.40
2018-06-18T13:08:08.405Z,94.90
2018-06-18T13:10:36.616Z,94.70
2018-06-18T13:13:04.735Z,94.80
2018-06-18T13:15:32.846Z,94.30
2018-06-18T13:18:00.952Z,94.50
2018-06-18T13:20:29.052Z,93.90
2018-06-18T13:22:57.392Z,93.90
2018-06-18T13:25:25.859Z,93.70
2018-06-18T13:27:59.424Z,94.40
2018-06-18T13:30:27.588Z,93.60
2018-06-18T13:32:55.693Z,94.20
2018-06-18T13:35:24.196Z,94.40
2018-06-18T13:37:57.934Z,94.00
2018-06-18T13:40:31.536Z,94.30
2018-06-18T13:43:05.172Z,94.40
2018-06-18T13:45:34.627Z,94.00
2018-06-18T13:49:11.324Z,94.40
2018-06-18T13:51:39.444Z,94.20
2018-06-18T13:54:07.549Z,93.70
2018-06-18T13:56:35.668Z,94.00
2018-06-18T13:59:03.763Z,94.30
2018-06-18T14:01:31.863Z,94.60
2018-06-18T14:04:00.005Z,94.60
2018-06-18T14:06:28.113Z,94.90
2018-06-18T14:08:56.236Z,94.20
2018-06-18T14:11:24.340Z,93.10
2018-06-18T14:13:52.529Z,93.20
2018-06-18T14:16:20.586Z,93.10
2018-06-18T14:18:48.760Z,93.30
2018-06-18T14:21:16.896Z,92.80
2018-06-18T14:23:45.014Z,92.80
2018-06-18T14:26:13.160Z,93.00
2018-06-18T14:28:41.273Z,93.00
2018-06-18T14:31:14.805Z,93.00
2018-06-18T14:33:48.191Z,93.30
2018-06-18T14:36:21.931Z,93.50
2018-06-18T14:38:55.351Z,93.10
2018-06-18T14:41:23.536Z,93.30
2018-06-18T14:43:51.845Z,93.40
2018-06-18T14:46:19.976Z,93.50
2018-06-18T14:48:48.106Z,93.10
2018-06-18T14:51:16.202Z,93.10
2018-06-18T14:53:44.312Z,92.60
2018-06-18T14:56:20.462Z,93.00
2018-06-18T14:58:53.748Z,93.20
2018-06-18T15:01:21.852Z,92.50
2018-06-18T15:45:01.240Z,92.60
2018-06-18T15:47:29.358Z,91.70
2018-06-18T15:49:57.534Z,92.10
2018-06-18T15:52:25.640Z,92.60
2018-06-18T15:54:54.215Z,92.40
2018-06-18T15:57:22.326Z,92.50
2018-06-18T15:59:50.443Z,92.70
2018-06-18T16:02:18.604Z,92.20
2018-06-18T16:04:46.803Z,92.50
2018-06-18T16:07:14.909Z,93.00
2018-06-18T16:09:42.999Z,92.90
2018-06-18T16:12:11.103Z,93.20
2018-06-18T16:14:39.201Z,93.10
2018-06-18T16:17:07.328Z,92.60
2018-06-18T16:19:35.419Z,92.80
2018-06-18T16:22:03.545Z,92.90
2018-06-18T16:24:31.651Z,93.00
2018-06-18T16:26:59.759Z,93.00
2018-06-18T16:29:27.854Z,93.30
2018-06-18T16:31:55.965Z,92.90
2018-06-18T16:34:24.079Z,93.50
2018-06-18T16:36:52.305Z,93.10
2018-06-18T16:39:20.397Z,93.30
2018-06-18T16:41:48.494Z,93.20
2018-06-18T16:44:16.602Z,93.20
2018-06-18T16:46:44.703Z,93.50
2018-06-18T16:49:13.610Z,93.70
2018-06-18T16:51:43.083Z,93.50
2018-06-18T16:54:11.203Z,93.80
2018-06-18T16:56:39.336Z,93.80
2018-06-18T16:59:07.443Z,93.80
2018-06-18T17:01:35.543Z,93.90
2018-06-18T17:04:03.648Z,94.00
2018-06-18T17:06:31.740Z,94.10
2018-06-18T17:08:59.889Z,94.40
2018-06-18T17:11:27.954Z,94.50
2018-06-18T17:13:56.074Z,94.60
2018-06-18T17:16:24.226Z,94.70
2018-06-18T17:18:52.331Z,94.60
2018-06-18T17:21:20.430Z,94.80
2018-06-18T17:23:48.534Z,94.80
2018-06-18T17:28:44.600Z,94.50
2018-06-18T17:31:12.758Z,94.50
2018-06-18T17:33:40.889Z,94.80
2018-06-18T17:36:09.054Z,94.60
2018-06-18T17:38:37.141Z,94.50
2018-06-18T17:41:05.666Z,94.70
2018-06-18T17:43:33.772Z,94.80
2018-06-18T17:46:01.869Z,94.90
2018-06-18T17:48:30.517Z,95.10
2018-06-18T17:50:58.624Z,95.10
2018-06-18T17:53:26.736Z,95.10
2018-06-18T17:55:54.883Z,95.20
2018-06-18T17:58:23.092Z,95.20
2018-06-18T18:00:51.200Z,95.30
2018-06-18T18:03:19.438Z,95.40
2018-06-18T18:05:47.583Z,95.50
2018-06-18T18:08:15.688Z,95.60
2018-06-18T18:10:43.783Z,95.70
2018-06-18T18:13:11.954Z,95.60
2018-06-18T18:15:39.991Z,95.70
2018-06-18T18:18:08.228Z,95.60
2018-06-18T18:20:36.321Z,95.70
2018-06-18T18:23:04.410Z,95.80
2018-06-18T18:25:32.516Z,95.70
2018-06-18T18:28:00.628Z,95.90
2018-06-18T18:30:28.720Z,96.20
2018-06-18T18:32:56.833Z,96.20
2018-06-18T18:35:24.936Z,96.20
2018-06-18T18:37:53.075Z,96.30
2018-06-18T18:40:21.176Z,96.30
2018-06-18T18:42:49.316Z,96.30
2018-06-18T18:45:17.426Z,96.50
2018-06-18T18:47:45.535Z,96.60
2018-06-18T18:50:13.638Z,97.00
2018-06-18T18:52:41.756Z,97.50
2018-06-18T18:55:50.128Z,97.90
2018-06-18T18:58:29.581Z,98.10
2018-06-18T19:00:57.734Z,98.70
2018-06-18T19:03:27.519Z,98.90
2018-06-18T19:05:57.015Z,98.90
2018-06-18T19:08:29.911Z,98.90
2018-06-18T19:10:59.500Z,98.70
2018-06-18T19:13:30.851Z,98.80
2018-06-18T19:15:59.537Z,98.70
2018-06-18T19:18:27.680Z,98.90
2018-06-18T19:21:04.127Z,98.90
2018-06-18T19:23:32.443Z,98.90
2018-06-18T19:26:00.548Z,99.00
2018-06-18T19:28:28.783Z,99.00
2018-06-18T19:31:14.207Z,99.10
2018-06-18T19:33:51.157Z,99.10
2018-06-18T19:36:19.277Z,99.20
2018-06-18T19:38:47.428Z,99.20
2018-06-18T19:41:15.536Z,99.20
2018-06-18T19:43:43.645Z,99.40
2018-06-18T19:46:11.857Z,99.40
2018-06-18T19:48:50.055Z,99.50
2018-06-18T19:51:18.176Z,99.50
2018-06-18T19:53:46.298Z,99.80
2018-06-18T19:56:14.573Z,99.90
2018-06-18T19:58:42.575Z,99.90
2018-06-18T20:01:10.833Z,99.90
2018-06-18T20:06:32.179Z,99.90
2018-06-18T20:09:00.279Z,99.90
2018-06-18T20:11:28.402Z,99.90
2018-06-18T20:13:56.512Z,99.90
2018-06-18T20:16:24.625Z,99.90
2018-06-18T20:18:52.735Z,99.90
2018-06-18T20:21:20.839Z,99.90
2018-06-18T20:23:48.959Z,99.90
2018-06-18T20:28:45.291Z,99.90
2018-06-18T20:31:13.430Z,99.90
2018-06-18T20:33:44.729Z,99.90
2018-06-18T20:36:14.266Z,99.90
2018-06-18T20:38:42.384Z,99.90
2018-06-18T20:41:10.600Z,99.90
2018-06-18T20:43:53.907Z,99.90
2018-06-18T20:46:22.084Z,99.90
2018-06-18T20:48:50.190Z,99.90
2018-06-18T20:51:18.311Z,99.90
2018-06-18T20:53:46.435Z,99.90
2018-06-18T20:56:14.694Z,99.90
2018-06-18T20:58:42.876Z,99.90
2018-06-18T21:01:10.989Z,99.90
2018-06-18T21:03:39.091Z,99.90
2018-06-18T21:06:07.212Z,99.90
2018-06-18T21:08:35.429Z,99.90
2018-06-18T21:11:03.552Z,99.90
2018-06-18T21:13:31.688Z,99.90
2018-06-18T21:15:59.794Z,99.90
2018-06-18T21:18:27.916Z,99.90
2018-06-18T21:20:56.029Z,99.90
2018-06-18T21:23:24.115Z,99.90
2018-06-18T21:25:52.243Z,99.90
2018-06-18T21:28:20.390Z,99.90
2018-06-18T21:30:48.584Z,99.90
2018-06-18T21:33:16.676Z,99.90
2018-06-18T21:35:44.780Z,99.90
2018-06-18T21:38:12.918Z,99.90
2018-06-18T21:40:41.040Z,99.90
2018-06-18T21:43:09.143Z,99.90
2018-06-18T21:45:37.266Z,99.90
2018-06-18T21:48:05.359Z,99.90
2018-06-18T21:50:33.466Z,99.90
2018-06-18T21:53:01.588Z,99.90
2018-06-18T21:55:29.712Z,99.90
2018-06-18T21:57:57.806Z,99.90
2018-06-18T22:00:32.206Z,99.90
2018-06-18T22:03:00.331Z,99.90
2018-06-18T22:05:29.240Z,99.90
2018-06-18T22:07:57.385Z,99.90
2018-06-18T22:10:25.500Z,99.90
2018-06-18T22:12:53.590Z,99.90
2018-06-18T22:15:21.696Z,99.90
2018-06-18T22:17:49.795Z,99.90
2018-06-18T22:20:17.902Z,99.90
2018-06-18T22:22:46.006Z,99.90
2018-06-18T22:25:14.116Z,99.90
2018-06-18T22:27:42.227Z,99.90
2018-06-18T22:30:10.338Z,99.90
2018-06-18T22:32:38.428Z,99.90
2018-06-18T22:35:06.588Z,99.90
2018-06-18T22:37:34.731Z,99.90
2018-06-18T22:40:02.836Z,99.90
2018-06-18T22:42:31.022Z,99.90
2018-06-18T22:44:59.141Z,99.90
2018-06-18T22:47:27.254Z,99.90
2018-06-18T22:49:55.404Z,99.90
2018-06-18T22:52:23.550Z,99.90
2018-06-18T22:54:51.763Z,99.90
2018-06-18T22:57:19.887Z,99.90
2018-06-18T22:59:48.012Z,99.90
2018-06-18T23:02:33.518Z,99.90
2018-06-18T23:05:01.640Z,99.90
2018-06-18T23:07:29.763Z,99.90
2018-06-18T23:09:57.870Z,99.90
2018-06-18T23:12:32.015Z,99.90
2018-06-18T23:15:00.215Z,99.90
2018-06-18T23:17:28.448Z,99.90
2018-06-18T23:19:56.538Z,99.90
2018-06-18T23:22:24.883Z,99.90
2018-06-18T23:24:53.006Z,99.90
2018-06-18T23:27:21.125Z,99.90
2018-06-18T23:32:17.185Z,99.90
2018-06-18T23:34:45.267Z,99.90
2018-06-18T23:37:13.388Z,99.90
2018-06-18T23:39:41.501Z,99.90
2018-06-18T23:42:09.607Z,99.90
2018-06-18T23:44:37.721Z,99.90
2018-06-18T23:47:05.847Z,99.90
2018-06-18T23:49:33.951Z,99.90
2018-06-18T23:52:02.058Z,99.90
2018-06-18T23:54:30.151Z,99.90
2018-06-18T23:56:58.307Z,99.90
2018-06-18T23:59:26.451Z,99.90
